Corinth, Vermont
Current Conditions -  °F | °C
As of 4:51 AM on Sunday 21 Dec 2014 (Local Time) from KMPV Reporting Station
Overcast Overcast  
Wind Chill: 14°   Ceiling: 3200
Heat Index: 14°   Visibility: 8mi
Dew Point: 11°   Wind: 0mph
Humidity: 88%   Direction: NA
Pressure: 30.3"   Gusts: NA
Location:  44.02°N, 72.3°W
Report Text: KMPV 210951Z AUTO 00000KT 8SM OVC032 M10/M12 A3030 RMK AO2 SLP284 T11001117
Loading
Personal Weather Stations






























Interactive Weather Map New forecast layout! Learn more

10-Day Weather Forecast

Advertisements
Track Severe Weather on mobile